Time;durP1;ratioP1;P1;durP2;ratioP2;P2;SDS_P1;SDS_P2;PMS_P1;PMS_P2;Temp;Humidity;BMP_temperature;BMP_pressure;BME280_temperature;BME280_humidity;BME280_pressure;Samples;Min_cycle;Max_cycle;Signal;HPM_P1;HPM_P2
2022/02/04 00:28:09;;;;;;;8.45;4.22;;;;;;;;;;4915641;29;20143;-65
2022/02/04 00:30:40;;;;;;;6.47;4.65;;;;;;;;;;4943790;29;20039;-65
2022/02/04 00:33:07;;;;;;;6.97;4.25;;;;;;;;;;4955437;28;20019;-65
2022/02/04 00:38:17;;;;;;;7.55;5.70;;;;;;;;;;4954566;28;20069;-65
2022/02/04 00:40:45;;;;;;;9.07;4.93;;;;;;;;;;4954470;28;20015;-65
2022/02/04 00:43:13;;;;;;;7.55;4.43;;;;;;;;;;4950066;29;20028;-65
2022/02/04 00:45:55;;;;;;;7.13;5.20;;;;;;;;;;4948135;28;20027;-65
2022/02/04 00:51:08;;;;;;;7.72;5.40;;;;;;;;;;4948954;28;20167;-63
2022/02/04 00:53:44;;;;;;;8.70;5.68;;;;;;;;;;4952650;29;20051;-65
2022/02/04 00:56:20;;;;;;;9.88;4.00;;;;;;;;;;4949399;28;20484;-65
2022/02/04 01:26:02;;;;;;;11.45;8.18;;;;;;;;;;4941490;28;20147;-64
2022/02/04 01:28:28;;;;;;;7.25;4.90;;;;;;;;;;4953112;29;20033;-62
2022/02/04 01:30:54;;;;;;;8.55;5.68;;;;;;;;;;4954422;28;20031;-65
2022/02/04 01:33:19;;;;;;;7.90;5.68;;;;;;;;;;4951093;28;20023;-64
2022/02/04 01:35:45;;;;;;;11.18;9.90;;;;;;;;;;4953227;28;20118;-64
2022/02/04 01:38:10;;;;;;;9.57;6.10;;;;;;;;;;4956891;28;20023;-63
2022/02/04 01:40:35;;;;;;;11.45;8.05;;;;;;;;;;4951103;28;20043;-64
2022/02/04 01:43:01;;;;;;;10.45;6.60;;;;;;;;;;4954057;28;20377;-64
2022/02/04 01:45:26;;;;;;;8.82;6.38;;;;;;;;;;4953830;28;20031;-64
2022/02/04 01:47:55;;;;;;;6.68;4.05;;;;;;;;;;4954187;28;20464;-66
2022/02/04 01:50:20;;;;;;;4.68;3.55;;;;;;;;;;4952986;28;20035;-63
2022/02/04 01:52:45;;;;;;;4.60;3.58;;;;;;;;;;4950729;28;20027;-63
2022/02/04 01:55:11;;;;;;;7.05;5.35;;;;;;;;;;4952867;28;20043;-64
2022/02/04 01:57:36;;;;;;;6.78;4.20;;;;;;;;;;4954533;28;20031;-64
2022/02/04 02:00:02;;;;;;;5.32;4.15;;;;;;;;;;4953113;29;20493;-64
2022/02/04 02:02:27;;;;;;;4.93;2.33;;;;;;;;;;4954284;29;20477;-65
2022/02/04 02:04:52;;;;;;;5.20;3.58;;;;;;;;;;4952146;28;20498;-65
2022/02/04 02:07:21;;;;;;;4.50;3.30;;;;;;;;;;4953413;28;20036;-66
2022/02/04 02:10:07;;;;;;;4.30;3.25;;;;;;;;;;4952723;28;20042;-65
2022/02/04 02:12:42;;;;;;;4.25;3.45;;;;;;;;;;4950846;29;20150;-64
2022/02/04 02:15:25;;;;;;;2.97;2.08;;;;;;;;;;4952859;28;20031;-65
2022/02/04 02:44:45;;;;;;;4.05;2.70;;;;;;;;;;4953741;28;20031;-65
2022/02/04 03:00:11;;;;;;;4.18;1.55;;;;;;;;;;4949350;29;20089;-65
2022/02/04 03:02:37;;;;;;;2.53;1.27;;;;;;;;;;4953871;28;20039;-64
2022/02/04 03:05:02;;;;;;;2.20;1.15;;;;;;;;;;4952209;29;20106;-65
2022/02/04 03:07:28;;;;;;;2.67;1.52;;;;;;;;;;4953267;28;20468;-64
2022/02/04 03:09:53;;;;;;;2.30;1.52;;;;;;;;;;4952325;28;20124;-64
2022/02/04 03:12:18;;;;;;;3.63;1.45;;;;;;;;;;4953471;29;20019;-65
2022/02/04 03:14:43;;;;;;;1.65;1.10;;;;;;;;;;4952671;29;20377;-64
2022/02/04 03:17:11;;;;;;;1.45;0.95;;;;;;;;;;4954974;28;20457;-63
2022/02/04 03:19:38;;;;;;;1.55;0.77;;;;;;;;;;4953068;28;20030;-65
2022/02/04 03:22:09;;;;;;;0.88;0.57;;;;;;;;;;4948483;28;20110;-63
2022/02/04 03:24:34;;;;;;;1.58;0.50;;;;;;;;;;4951984;29;20058;-64
2022/02/04 03:27:04;;;;;;;0.77;0.50;;;;;;;;;;4961797;28;20554;-65
2022/02/04 03:29:37;;;;;;;1.15;0.57;;;;;;;;;;4952364;29;20031;-65
2022/02/04 03:32:08;;;;;;;0.88;0.50;;;;;;;;;;4952918;28;20045;-65
2022/02/04 03:34:33;;;;;;;0.68;0.40;;;;;;;;;;4952852;29;20032;-66
2022/02/04 03:36:58;;;;;;;1.10;0.63;;;;;;;;;;4955027;28;20456;-65
2022/02/04 03:39:23;;;;;;;2.10;0.63;;;;;;;;;;4955429;28;20070;-64
2022/02/04 03:41:49;;;;;;;1.00;0.68;;;;;;;;;;4956115;28;20122;-64
2022/02/04 03:44:14;;;;;;;0.68;0.52;;;;;;;;;;4956038;29;20031;-64
2022/02/04 03:46:39;;;;;;;1.23;0.50;;;;;;;;;;4956580;29;20935;-64
2022/02/04 03:49:04;;;;;;;2.88;0.90;;;;;;;;;;4955557;28;20388;-66
2022/02/04 03:51:29;;;;;;;1.05;0.40;;;;;;;;;;4951171;28;20464;-64
2022/02/04 03:53:55;;;;;;;2.08;0.47;;;;;;;;;;4955412;29;20410;-64
2022/02/04 03:56:20;;;;;;;0.82;0.47;;;;;;;;;;4954705;29;20485;-64
2022/02/04 03:58:45;;;;;;;0.57;0.35;;;;;;;;;;4955728;28;20027;-65
2022/02/04 04:01:11;;;;;;;0.77;0.43;;;;;;;;;;4956173;29;20265;-65
2022/02/04 04:03:36;;;;;;;2.08;0.55;;;;;;;;;;4956015;28;20031;-65
2022/02/04 04:06:02;;;;;;;0.70;0.43;;;;;;;;;;4956132;28;20031;-65
2022/02/04 04:08:27;;;;;;;0.93;0.55;;;;;;;;;;4956831;28;20039;-63
2022/02/04 04:10:53;;;;;;;0.77;0.50;;;;;;;;;;4956043;28;20019;-65
2022/02/04 04:13:19;;;;;;;0.70;0.70;;;;;;;;;;4955979;29;20086;-64
2022/02/04 04:15:44;;;;;;;0.60;0.40;;;;;;;;;;4955458;28;20086;-65
2022/02/04 04:18:12;;;;;;;0.60;0.57;;;;;;;;;;4955649;28;20029;-64
2022/02/04 04:20:38;;;;;;;0.60;0.30;;;;;;;;;;4952709;28;20035;-63
2022/02/04 04:23:03;;;;;;;0.85;0.30;;;;;;;;;;4954545;29;20543;-64
2022/02/04 04:25:29;;;;;;;0.95;0.50;;;;;;;;;;4953200;29;20086;-65
2022/02/04 04:27:55;;;;;;;0.93;0.70;;;;;;;;;;4956245;28;20020;-65
2022/02/04 04:30:23;;;;;;;1.08;0.40;;;;;;;;;;4954308;28;20500;-66
2022/02/04 04:32:49;;;;;;;0.93;0.47;;;;;;;;;;4952772;28;20055;-65
2022/02/04 04:35:15;;;;;;;0.40;0.25;;;;;;;;;;4942792;29;20035;-65
2022/02/04 04:38:09;;;;;;;0.20;0.17;;;;;;;;;;4955419;28;20054;-65
2022/02/04 05:29:10;;;;;;;0.52;0.20;;;;;;;;;;4954936;28;20520;-64
2022/02/04 05:31:36;;;;;;;0.55;0.30;;;;;;;;;;4952923;28;20090;-65
2022/02/04 05:34:01;;;;;;;1.10;0.40;;;;;;;;;;4954097;28;20026;-64
2022/02/04 05:36:26;;;;;;;0.73;0.43;;;;;;;;;;4954798;28;20078;-65
2022/02/04 05:38:54;;;;;;;0.68;0.22;;;;;;;;;;4954291;28;20082;-65
2022/02/04 05:41:25;;;;;;;0.63;0.40;;;;;;;;;;4963875;28;20484;-66
2022/02/04 05:43:52;;;;;;;0.95;0.30;;;;;;;;;;4960589;28;20494;-64
2022/02/04 05:46:24;;;;;;;0.20;0.20;;;;;;;;;;4954351;28;20146;-65
2022/02/04 05:48:53;;;;;;;1.45;0.40;;;;;;;;;;4953481;28;20027;-65
2022/02/04 06:01:56;;;;;;;0.60;0.30;;;;;;;;;;4954227;28;20546;-66
2022/02/04 06:04:40;;;;;;;2.28;0.43;;;;;;;;;;4952647;28;20026;-65
2022/02/04 06:22:38;;;;;;;0.82;0.43;;;;;;;;;;4949461;28;20042;-64
2022/02/04 06:25:07;;;;;;;0.68;0.40;;;;;;;;;;4951875;28;20035;-65
2022/02/04 06:27:33;;;;;;;0.77;0.50;;;;;;;;;;4952944;28;20114;-65
2022/02/04 06:29:58;;;;;;;1.02;0.50;;;;;;;;;;4946535;28;20190;-66
2022/02/04 06:32:23;;;;;;;1.20;0.50;;;;;;;;;;4944717;29;20024;-67
2022/02/04 06:34:49;;;;;;;0.73;0.30;;;;;;;;;;4950968;28;20097;-65
2022/02/04 06:37:15;;;;;;;1.58;0.40;;;;;;;;;;4953300;28;20396;-67
2022/02/04 06:39:40;;;;;;;0.75;0.47;;;;;;;;;;4951907;29;20035;-66
2022/02/04 06:42:06;;;;;;;0.93;0.70;;;;;;;;;;4953202;29;20122;-66
2022/02/04 06:44:31;;;;;;;1.20;0.38;;;;;;;;;;4950704;28;20110;-65
2022/02/04 06:46:56;;;;;;;1.20;0.63;;;;;;;;;;4952140;29;20377;-66
2022/02/04 06:49:22;;;;;;;0.85;0.82;;;;;;;;;;4948391;28;20042;-67
2022/02/04 06:51:47;;;;;;;1.33;0.47;;;;;;;;;;4947279;28;20183;-65
2022/02/04 06:54:12;;;;;;;1.10;0.57;;;;;;;;;;4951794;28;20019;-65
2022/02/04 06:56:37;;;;;;;1.02;0.30;;;;;;;;;;4952999;29;20094;-65
2022/02/04 06:59:03;;;;;;;1.13;0.63;;;;;;;;;;4952786;29;20035;-65
2022/02/04 07:01:30;;;;;;;1.08;0.65;;;;;;;;;;4947595;28;20049;-64
2022/02/04 07:03:55;;;;;;;1.33;0.60;;;;;;;;;;4947985;28;20042;-66
2022/02/04 07:06:21;;;;;;;1.38;0.60;;;;;;;;;;4952169;29;20027;-65
2022/02/04 07:14:13;;;;;;;2.90;0.85;;;;;;;;;;4956358;28;20042;-64
2022/02/04 07:17:13;;;;;;;1.60;0.75;;;;;;;;;;4952376;29;20055;-67
2022/02/04 07:19:46;;;;;;;1.40;1.08;;;;;;;;;;4956530;28;20503;-65
2022/02/04 07:22:12;;;;;;;1.75;0.75;;;;;;;;;;4952003;28;20046;-66
2022/02/04 07:24:37;;;;;;;1.30;0.60;;;;;;;;;;4956640;29;20035;-66
2022/02/04 07:27:02;;;;;;;0.88;0.43;;;;;;;;;;4956250;29;20111;-66
2022/02/04 07:29:29;;;;;;;1.08;0.80;;;;;;;;;;4956848;28;20477;-65
2022/02/04 07:31:54;;;;;;;1.52;0.73;;;;;;;;;;4957618;29;20019;-67
2022/02/04 07:34:35;;;;;;;0.60;0.57;;;;;;;;;;4955687;29;20035;-65
2022/02/04 07:42:28;;;;;;;1.40;0.68;;;;;;;;;;4956113;29;20089;-66
2022/02/04 07:44:53;;;;;;;0.70;0.57;;;;;;;;;;4954904;29;20066;-65
2022/02/04 07:47:18;;;;;;;2.15;1.02;;;;;;;;;;4955577;28;20126;-65
2022/02/04 07:49:43;;;;;;;1.25;0.70;;;;;;;;;;4954160;29;20034;-66
2022/02/04 07:52:09;;;;;;;1.98;1.05;;;;;;;;;;4950150;28;20031;-66
2022/02/04 07:54:34;;;;;;;1.15;0.73;;;;;;;;;;4953366;28;20036;-65
2022/02/04 07:56:59;;;;;;;2.17;0.95;;;;;;;;;;4954244;28;20062;-64
2022/02/04 07:59:24;;;;;;;1.63;0.60;;;;;;;;;;4946920;28;20053;-66
2022/02/04 08:01:50;;;;;;;1.17;0.50;;;;;;;;;;4954881;28;20480;-65
2022/02/04 08:04:20;;;;;;;1.35;0.90;;;;;;;;;;4955533;29;20436;-64
2022/02/04 08:06:55;;;;;;;0.93;0.80;;;;;;;;;;4950933;28;20089;-62
2022/02/04 08:09:42;;;;;;;1.95;1.10;;;;;;;;;;4946265;28;20228;-66
2022/02/04 08:27:48;;;;;;;1.08;0.57;;;;;;;;;;4968957;28;20039;-65
2022/02/04 08:33:02;;;;;;;1.55;0.85;;;;;;;;;;4956033;29;20092;-65
2022/02/04 08:36:00;;;;;;;1.20;0.80;;;;;;;;;;4955674;29;20144;-66
2022/02/04 08:46:56;;;;;;;2.10;1.95;;;;;;;;;;4942597;29;20109;-66
2022/02/04 08:54:48;;;;;;;1.83;1.55;;;;;;;;;;4952883;28;20647;-65
2022/02/04 08:57:39;;;;;;;2.08;1.83;;;;;;;;;;4952370;29;20035;-65
2022/02/04 09:00:33;;;;;;;2.65;2.10;;;;;;;;;;4945763;28;20094;-66
2022/02/04 09:02:55;;;;;;;2.65;2.03;;;;;;;;;;4942984;28;20066;-66
2022/02/04 09:05:29;;;;;;;2.65;1.77;;;;;;;;;;4952364;29;20031;-65
2022/02/04 09:08:10;;;;;;;1.50;1.40;;;;;;;;;;4951105;29;20042;-65
2022/02/04 09:10:36;;;;;;;1.50;1.40;;;;;;;;;;4945030;29;20047;-65
2022/02/04 09:23:21;;;;;;;1.60;1.50;;;;;;;;;;4952441;29;20035;-65
2022/02/04 09:25:47;;;;;;;1.55;1.20;;;;;;;;;;4952311;28;20043;-66
2022/02/04 09:28:12;;;;;;;1.55;1.00;;;;;;;;;;4953967;28;20050;-65
2022/02/04 09:30:37;;;;;;;1.27;0.80;;;;;;;;;;4953465;28;20035;-66
2022/02/04 09:33:02;;;;;;;1.55;0.95;;;;;;;;;;4953885;28;20042;-64
2022/02/04 09:35:28;;;;;;;1.13;0.85;;;;;;;;;;4952719;29;20023;-64
2022/02/04 09:37:54;;;;;;;0.82;0.82;;;;;;;;;;4953794;28;20074;-66
2022/02/04 09:40:19;;;;;;;1.98;1.20;;;;;;;;;;4953655;28;20098;-66
2022/02/04 09:42:45;;;;;;;0.85;0.80;;;;;;;;;;4954279;28;20035;-65
2022/02/04 09:45:11;;;;;;;1.13;0.80;;;;;;;;;;4953869;29;20065;-64
2022/02/04 09:47:38;;;;;;;1.10;0.70;;;;;;;;;;4949683;29;20054;-64
2022/02/04 09:50:16;;;;;;;1.20;0.80;;;;;;;;;;4949580;29;20090;-66
2022/02/04 10:07:18;;;;;;;0.90;0.65;;;;;;;;;;5057684;28;20040;-65
2022/02/04 10:15:40;;;;;;;1.02;0.73;;;;;;;;;;5048778;28;20025;-65
2022/02/04 10:17:59;;;;;;;0.73;0.70;;;;;;;;;;5053807;28;20084;-66
2022/02/04 10:20:25;;;;;;;0.50;0.50;;;;;;;;;;5044845;28;20052;-62
2022/02/04 10:22:50;;;;;;;0.95;0.60;;;;;;;;;;5028975;28;20462;-65
2022/02/04 10:25:16;;;;;;;0.57;0.50;;;;;;;;;;5043425;28;20014;-65
2022/02/04 10:27:44;;;;;;;0.93;0.80;;;;;;;;;;5052384;28;20021;-65
2022/02/04 10:30:10;;;;;;;1.50;1.08;;;;;;;;;;5046785;28;20033;-66
2022/02/04 10:32:43;;;;;;;0.88;0.63;;;;;;;;;;5059582;28;20028;-64
2022/02/04 10:35:09;;;;;;;0.80;0.60;;;;;;;;;;5054154;28;20033;-66
2022/02/04 10:37:37;;;;;;;1.13;0.95;;;;;;;;;;5059600;28;20046;-61
2022/02/04 10:40:13;;;;;;;1.02;0.63;;;;;;;;;;5046950;28;20463;-65
2022/02/04 10:48:15;;;;;;;0.50;0.45;;;;;;;;;;5047963;28;20108;-66
2022/02/04 10:56:22;;;;;;;0.98;0.47;;;;;;;;;;5047224;28;20029;-66
2022/02/04 11:04:12;;;;;;;0.55;0.55;;;;;;;;;;5047561;28;20087;-66
2022/02/04 11:10:07;;;;;;;1.25;0.40;;;;;;;;;;5022251;28;20026;-65
2022/02/04 11:17:10;;;;;;;0.50;0.50;;;;;;;;;;5038802;28;20512;-66
2022/02/04 11:43:44;;;;;;;0.20;0.20;;;;;;;;;;5039706;28;20039;-66
2022/02/04 11:51:30;;;;;;;0.38;0.20;;;;;;;;;;5025588;28;20088;-66
2022/02/04 11:54:29;;;;;;;0.60;0.20;;;;;;;;;;5022468;28;20140;-66
2022/02/04 11:57:08;;;;;;;0.30;0.20;;;;;;;;;;5031540;28;20029;-64
2022/02/04 11:59:37;;;;;;;0.30;0.20;;;;;;;;;;5014659;28;20030;-65
2022/02/04 12:02:21;;;;;;;0.32;0.20;;;;;;;;;;5013306;28;20109;-65
2022/02/04 12:04:46;;;;;;;0.60;0.20;;;;;;;;;;5021427;28;20030;-66
2022/02/04 12:07:31;;;;;;;0.40;0.40;;;;;;;;;;5041636;28;20032;-65
2022/02/04 12:09:56;;;;;;;0.40;0.30;;;;;;;;;;5041770;28;20057;-65
2022/02/04 12:12:40;;;;;;;0.22;0.20;;;;;;;;;;5013133;28;20068;-66
2022/02/04 12:15:24;;;;;;;0.30;0.20;;;;;;;;;;5013165;28;20521;-66
2022/02/04 12:17:49;;;;;;;0.40;0.20;;;;;;;;;;5013437;28;20025;-64
2022/02/04 12:20:15;;;;;;;0.60;0.20;;;;;;;;;;5021295;28;20025;-66
2022/02/04 12:22:50;;;;;;;0.38;0.20;;;;;;;;;;5013091;28;20076;-65
2022/02/04 12:25:41;;;;;;;0.47;0.20;;;;;;;;;;5032935;28;20041;-65
2022/02/04 12:28:06;;;;;;;0.20;0.20;;;;;;;;;;5052804;28;20027;-65
2022/02/04 12:30:36;;;;;;;0.90;0.20;;;;;;;;;;5039102;28;20457;-66
2022/02/04 12:33:02;;;;;;;0.77;0.20;;;;;;;;;;5027031;28;20017;-65
2022/02/04 12:35:28;;;;;;;1.85;0.30;;;;;;;;;;5034541;28;20113;-65
2022/02/04 12:37:54;;;;;;;0.73;0.20;;;;;;;;;;5023093;28;20017;-64
2022/02/04 12:40:20;;;;;;;0.30;0.20;;;;;;;;;;5030379;28;21177;-64
2022/02/04 12:42:45;;;;;;;0.40;0.20;;;;;;;;;;5020062;28;20032;-65
2022/02/04 12:45:14;;;;;;;0.20;0.17;;;;;;;;;;5036409;28;20025;-65
2022/02/04 12:47:41;;;;;;;0.50;0.20;;;;;;;;;;5023169;28;20033;-66
2022/02/04 12:50:07;;;;;;;0.20;0.20;;;;;;;;;;5033327;28;20037;-65
2022/02/04 12:52:43;;;;;;;0.55;0.20;;;;;;;;;;5019087;28;20040;-65
2022/02/04 12:55:19;;;;;;;0.30;0.17;;;;;;;;;;5020272;28;20223;-66
2022/02/04 12:57:57;;;;;;;0.68;0.20;;;;;;;;;;5029345;28;20029;-66
2022/02/04 13:03:18;;;;;;;0.30;0.20;;;;;;;;;;5032596;28;20088;-65
2022/02/04 13:11:02;;;;;;;0.98;0.20;;;;;;;;;;5012037;28;20018;-66
2022/02/04 13:13:38;;;;;;;0.25;0.20;;;;;;;;;;5017278;28;20021;-66
2022/02/04 13:16:06;;;;;;;0.70;0.20;;;;;;;;;;5035868;28;20028;-65
2022/02/04 13:18:32;;;;;;;0.63;0.25;;;;;;;;;;5028729;28;20025;-66
2022/02/04 13:20:58;;;;;;;0.35;0.20;;;;;;;;;;5021147;28;20120;-65
2022/02/04 13:23:24;;;;;;;0.32;0.20;;;;;;;;;;5031421;28;20101;-66
2022/02/04 13:25:51;;;;;;;0.20;0.13;;;;;;;;;;5036238;28;20057;-63
2022/02/04 13:28:17;;;;;;;0.30;0.10;;;;;;;;;;5044337;28;20126;-66
2022/02/04 13:30:59;;;;;;;0.43;0.20;;;;;;;;;;5030102;28;20017;-65
2022/02/04 13:33:25;;;;;;;0.40;0.20;;;;;;;;;;5013683;28;20021;-66
2022/02/04 13:35:51;;;;;;;0.20;0.20;;;;;;;;;;5013813;28;20028;-64
2022/02/04 13:38:32;;;;;;;0.20;0.10;;;;;;;;;;5028852;28;20018;-66
2022/02/04 13:41:17;;;;;;;0.32;0.20;;;;;;;;;;5030727;28;20048;-67
2022/02/04 13:46:36;;;;;;;0.22;0.10;;;;;;;;;;5019815;28;20123;-65
2022/02/04 13:51:52;;;;;;;0.20;0.13;;;;;;;;;;5019969;28;20041;-65
2022/02/04 13:56:56;;;;;;;0.80;0.28;;;;;;;;;;5014857;28;20506;-65
2022/02/04 13:59:39;;;;;;;0.63;0.30;;;;;;;;;;5030260;28;20387;-66
2022/02/04 14:02:06;;;;;;;0.10;0.10;;;;;;;;;;5031170;28;20021;-64
2022/02/04 14:04:31;;;;;;;1.55;0.30;;;;;;;;;;5029842;28;20136;-66
2022/02/04 14:07:07;;;;;;;0.30;0.10;;;;;;;;;;5037451;28;20445;-64
2022/02/04 14:09:35;;;;;;;0.30;0.20;;;;;;;;;;5015913;28;20025;-64
2022/02/04 14:12:12;;;;;;;0.25;0.20;;;;;;;;;;5029240;28;20590;-65
2022/02/04 14:14:39;;;;;;;0.50;0.20;;;;;;;;;;5031226;28;20119;-65
2022/02/04 14:17:06;;;;;;;0.10;0.10;;;;;;;;;;5031169;28;20028;-65
2022/02/04 14:19:31;;;;;;;1.08;0.10;;;;;;;;;;5030707;28;20128;-65
2022/02/04 14:21:57;;;;;;;0.10;0.10;;;;;;;;;;5038483;28;20474;-65
2022/02/04 14:24:23;;;;;;;0.25;0.10;;;;;;;;;;5042234;28;20469;-64
2022/02/04 14:26:51;;;;;;;3.13;0.20;;;;;;;;;;5028836;28;20022;-66
2022/02/04 14:29:28;;;;;;;0.20;0.10;;;;;;;;;;5021474;28;20029;-65
2022/02/04 14:54:00;;;;;;;1.17;0.70;;;;;;;;;;5031611;28;20179;-65
2022/02/04 15:01:37;;;;;;;0.40;0.30;;;;;;;;;;5031726;28;20255;-65
2022/02/04 15:04:14;;;;;;;0.40;0.30;;;;;;;;;;5035318;28;20512;-66
2022/02/04 15:06:41;;;;;;;0.40;0.30;;;;;;;;;;5025437;28;20031;-64
2022/02/04 15:09:11;;;;;;;0.75;0.38;;;;;;;;;;5032202;28;20049;-65
2022/02/04 15:11:37;;;;;;;0.40;0.20;;;;;;;;;;5031157;28;20041;-65
2022/02/04 15:14:06;;;;;;;1.15;0.20;;;;;;;;;;5031314;28;20050;-65
2022/02/04 15:16:31;;;;;;;0.57;0.20;;;;;;;;;;5032787;28;20419;-64
2022/02/04 15:18:57;;;;;;;0.20;0.10;;;;;;;;;;5031096;28;20033;-65
2022/02/04 15:21:23;;;;;;;0.73;0.30;;;;;;;;;;5003013;28;20075;-63
2022/02/04 15:23:51;;;;;;;0.40;0.20;;;;;;;;;;5021814;28;20026;-65
2022/02/04 15:26:17;;;;;;;0.20;0.10;;;;;;;;;;5028443;28;20397;-64
2022/02/04 15:31:25;;;;;;;0.20;0.10;;;;;;;;;;5031425;28;20113;-66
2022/02/04 15:33:52;;;;;;;0.20;0.10;;;;;;;;;;5034219;28;20034;-66
2022/02/04 15:36:24;;;;;;;0.10;0.10;;;;;;;;;;5032860;28;20079;-65
2022/02/04 15:38:50;;;;;;;0.50;0.20;;;;;;;;;;5031452;28;20025;-65
2022/02/04 15:41:15;;;;;;;0.52;0.20;;;;;;;;;;5035324;28;20048;-64
2022/02/04 15:43:41;;;;;;;0.30;0.20;;;;;;;;;;5034047;28;20664;-67
2022/02/04 15:49:12;;;;;;;0.40;0.13;;;;;;;;;;5028861;28;20112;-65
2022/02/04 15:54:38;;;;;;;0.30;0.20;;;;;;;;;;5033023;28;20052;-65
2022/02/04 15:57:20;;;;;;;0.75;0.20;;;;;;;;;;5032719;28;20044;-65
2022/02/04 16:02:46;;;;;;;0.35;0.20;;;;;;;;;;5038949;28;20090;-65
2022/02/04 16:05:12;;;;;;;0.30;0.10;;;;;;;;;;5039783;28;20552;-65
2022/02/04 16:07:38;;;;;;;1.17;0.25;;;;;;;;;;5035023;28;20041;-65
2022/02/04 16:10:30;;;;;;;0.50;0.25;;;;;;;;;;5028317;28;20023;-65
2022/02/04 16:16:04;;;;;;;0.30;0.20;;;;;;;;;;5020950;28;20038;-65
2022/02/04 16:18:35;;;;;;;0.25;0.20;;;;;;;;;;5037365;28;20087;-66
2022/02/04 16:21:16;;;;;;;0.50;0.20;;;;;;;;;;5040637;28;20295;-66
2022/02/04 16:28:55;;;;;;;0.20;0.10;;;;;;;;;;5020170;28;20053;-65
2022/02/04 16:31:20;;;;;;;0.30;0.20;;;;;;;;;;5023473;28;20049;-66
2022/02/04 16:33:46;;;;;;;0.40;0.17;;;;;;;;;;5022561;28;20034;-64
2022/02/04 16:36:15;;;;;;;0.75;0.10;;;;;;;;;;5028276;28;20060;-62
2022/02/04 16:38:46;;;;;;;0.28;0.10;;;;;;;;;;5019800;28;20022;-64
2022/02/04 16:41:14;;;;;;;0.25;0.10;;;;;;;;;;5012827;28;20053;-60
2022/02/04 16:43:40;;;;;;;0.50;0.30;;;;;;;;;;5025432;28;20462;-66
2022/02/04 16:46:06;;;;;;;0.20;0.10;;;;;;;;;;5018224;28;20026;-66
2022/02/04 16:48:32;;;;;;;0.20;0.10;;;;;;;;;;5025919;28;20086;-60
2022/02/04 16:50:57;;;;;;;0.20;0.10;;;;;;;;;;5024577;28;20033;-65
2022/02/04 16:53:22;;;;;;;0.70;0.20;;;;;;;;;;5019895;28;20104;-64
2022/02/04 16:55:47;;;;;;;0.30;0.20;;;;;;;;;;5019147;28;20116;-65
2022/02/04 16:58:13;;;;;;;0.63;0.30;;;;;;;;;;5032334;28;20367;-65
2022/02/04 17:00:38;;;;;;;0.93;0.40;;;;;;;;;;5020224;28;20387;-65
2022/02/04 17:03:08;;;;;;;0.63;0.20;;;;;;;;;;5019034;28;20018;-66
2022/02/04 17:05:51;;;;;;;0.55;0.30;;;;;;;;;;5031323;28;20025;-65
2022/02/04 17:08:31;;;;;;;0.50;0.20;;;;;;;;;;5028086;28;20030;-65
2022/02/04 17:10:57;;;;;;;0.40;0.30;;;;;;;;;;5030171;28;20029;-65
2022/02/04 17:13:23;;;;;;;1.00;0.20;;;;;;;;;;5030269;28;20060;-65
2022/02/04 17:15:48;;;;;;;0.40;0.20;;;;;;;;;;5032287;28;20103;-66
2022/02/04 17:18:13;;;;;;;0.70;0.20;;;;;;;;;;5027739;28;20030;-67
2022/02/04 17:20:40;;;;;;;0.32;0.20;;;;;;;;;;5010533;28;20422;-65
2022/02/04 17:23:09;;;;;;;0.38;0.30;;;;;;;;;;5023316;28;20039;-66
2022/02/04 17:25:35;;;;;;;0.40;0.20;;;;;;;;;;5017292;28;20120;-63
2022/02/04 17:28:01;;;;;;;0.65;0.10;;;;;;;;;;5024393;28;20467;-66
2022/02/04 17:30:26;;;;;;;1.27;0.40;;;;;;;;;;5027100;28;20120;-66
2022/02/04 17:32:52;;;;;;;0.50;0.22;;;;;;;;;;5034705;28;20028;-60
2022/02/04 17:35:18;;;;;;;0.68;0.20;;;;;;;;;;5016935;28;20038;-67
2022/02/04 17:37:44;;;;;;;0.40;0.15;;;;;;;;;;5030031;28;20030;-66
2022/02/04 17:40:10;;;;;;;0.40;0.20;;;;;;;;;;5050753;28;20124;-66
2022/02/04 17:42:39;;;;;;;0.60;0.10;;;;;;;;;;5046213;28;20033;-66
2022/02/04 17:45:06;;;;;;;0.40;0.20;;;;;;;;;;5038674;28;20075;-64
2022/02/04 17:47:31;;;;;;;0.20;0.20;;;;;;;;;;5027877;28;20021;-68
2022/02/04 17:50:02;;;;;;;0.10;0.10;;;;;;;;;;5035290;28;20029;-66
2022/02/04 17:52:44;;;;;;;0.20;0.20;;;;;;;;;;5012182;28;20394;-65
2022/02/04 17:55:21;;;;;;;0.50;0.20;;;;;;;;;;5016314;28;20034;-65
2022/02/04 17:57:55;;;;;;;0.50;0.20;;;;;;;;;;5037173;28;20036;-66
2022/02/04 18:08:26;;;;;;;0.57;0.10;;;;;;;;;;5037803;28;20048;-66
2022/02/04 18:10:51;;;;;;;0.30;0.20;;;;;;;;;;5031110;28;20041;-65
2022/02/04 18:13:17;;;;;;;0.20;0.10;;;;;;;;;;5046253;28;20029;-67
2022/02/04 18:15:43;;;;;;;0.35;0.10;;;;;;;;;;5043153;28;20132;-58
2022/02/04 18:18:11;;;;;;;0.30;0.10;;;;;;;;;;5035713;28;20104;-66
2022/02/04 18:20:37;;;;;;;0.60;0.20;;;;;;;;;;5028491;28;20591;-66
2022/02/04 18:23:02;;;;;;;1.10;0.20;;;;;;;;;;5041599;28;20048;-65
2022/02/04 18:25:30;;;;;;;0.50;0.20;;;;;;;;;;5026541;28;20033;-66
2022/02/04 18:27:55;;;;;;;0.20;0.10;;;;;;;;;;5050141;28;20035;-67
2022/02/04 18:30:21;;;;;;;0.20;0.10;;;;;;;;;;5042565;28;20112;-66
2022/02/04 18:32:47;;;;;;;0.20;0.10;;;;;;;;;;5039433;28;20037;-66
2022/02/04 18:35:13;;;;;;;0.30;0.20;;;;;;;;;;5041065;28;20022;-64
2022/02/04 18:37:42;;;;;;;0.30;0.17;;;;;;;;;;5030671;28;20153;-66
2022/02/04 18:40:32;;;;;;;0.32;0.20;;;;;;;;;;5020244;28;20113;-66
2022/02/04 18:43:21;;;;;;;0.80;0.17;;;;;;;;;;5029315;28;20029;-66
2022/02/04 18:45:49;;;;;;;0.60;0.20;;;;;;;;;;5025324;28;20120;-65
2022/02/04 18:48:18;;;;;;;0.47;0.20;;;;;;;;;;5033905;28;20029;-66
2022/02/04 18:50:50;;;;;;;0.40;0.20;;;;;;;;;;5018247;28;20041;-66
2022/02/04 18:58:31;;;;;;;0.22;0.10;;;;;;;;;;5053152;28;20450;-65
2022/02/04 19:00:57;;;;;;;0.30;0.20;;;;;;;;;;5025990;28;20025;-66
2022/02/04 19:03:33;;;;;;;0.47;0.20;;;;;;;;;;5021848;28;20379;-65
2022/02/04 19:08:35;;;;;;;0.25;0.20;;;;;;;;;;5027854;28;20018;-65
2022/02/04 19:11:01;;;;;;;0.20;0.10;;;;;;;;;;5018662;28;20022;-66
2022/02/04 19:13:37;;;;;;;1.30;0.20;;;;;;;;;;5032064;28;20036;-65
2022/02/04 19:16:11;;;;;;;0.15;0.10;;;;;;;;;;5018050;28;20131;-65
2022/02/04 19:18:55;;;;;;;0.20;0.10;;;;;;;;;;5016574;28;20088;-67
2022/02/04 19:24:04;;;;;;;0.30;0.20;;;;;;;;;;5030963;28;20060;-65
2022/02/04 19:26:30;;;;;;;0.50;0.20;;;;;;;;;;5036858;28;20052;-63
2022/02/04 19:28:55;;;;;;;0.00;0.00;;;;;;;;;;5049189;28;20382;-65
2022/02/04 19:31:21;;;;;;;0.20;0.15;;;;;;;;;;5040507;28;20017;-66
2022/02/04 19:33:46;;;;;;;0.20;0.10;;;;;;;;;;5036257;28;20078;-66
2022/02/04 19:36:12;;;;;;;0.10;0.10;;;;;;;;;;5042055;28;20091;-65
2022/02/04 19:38:37;;;;;;;0.20;0.10;;;;;;;;;;5030202;28;20044;-66
2022/02/04 19:41:03;;;;;;;0.45;0.10;;;;;;;;;;5029916;28;20025;-64
2022/02/04 19:43:30;;;;;;;0.25;0.10;;;;;;;;;;5034183;28;20054;-66
2022/02/04 19:46:04;;;;;;;0.30;0.13;;;;;;;;;;5038420;28;20439;-66
2022/02/04 19:48:33;;;;;;;0.10;0.10;;;;;;;;;;5036587;28;20029;-66
2022/02/04 20:23:46;;;;;;;1.30;0.10;;;;;;;;;;5024380;28;20024;-67
2022/02/04 20:26:11;;;;;;;0.82;0.03;;;;;;;;;;5024283;28;20104;-63
2022/02/04 20:28:37;;;;;;;0.22;0.10;;;;;;;;;;5037621;28;20120;-62
2022/02/04 20:31:02;;;;;;;0.22;0.10;;;;;;;;;;5031263;28;20022;-63
2022/02/04 20:33:27;;;;;;;0.10;0.10;;;;;;;;;;5032324;28;20034;-68
2022/02/04 20:35:53;;;;;;;0.85;0.10;;;;;;;;;;5050898;28;20013;-64
2022/02/04 20:38:20;;;;;;;0.17;0.10;;;;;;;;;;5039668;28;20593;-65
2022/02/04 20:40:57;;;;;;;0.10;0.00;;;;;;;;;;5029739;28;20061;-64
2022/02/04 20:43:29;;;;;;;0.52;0.00;;;;;;;;;;5036370;28;20029;-63
2022/02/04 20:45:55;;;;;;;0.90;0.10;;;;;;;;;;5029279;28;20029;-65
2022/02/04 20:48:20;;;;;;;0.30;0.10;;;;;;;;;;5016928;28;20164;-63
2022/02/04 20:50:45;;;;;;;0.57;0.10;;;;;;;;;;5024142;28;20025;-62
2022/02/04 20:53:10;;;;;;;1.55;0.00;;;;;;;;;;5027695;28;20037;-64
2022/02/04 20:55:38;;;;;;;0.10;0.00;;;;;;;;;;5016197;28;20113;-61
2022/02/04 20:58:04;;;;;;;0.65;0.10;;;;;;;;;;5031872;28;20345;-65
2022/02/04 21:00:30;;;;;;;0.30;0.00;;;;;;;;;;5034813;28;20043;-64
2022/02/04 21:02:59;;;;;;;0.00;0.00;;;;;;;;;;5036644;28;20052;-64
2022/02/04 21:05:36;;;;;;;0.20;0.10;;;;;;;;;;5042081;28;20048;-60
2022/02/04 21:16:04;;;;;;;0.40;0.10;;;;;;;;;;5029584;28;20036;-58
2022/02/04 21:18:30;;;;;;;0.08;0.08;;;;;;;;;;5032176;28;20112;-62
2022/02/04 21:20:55;;;;;;;0.10;0.10;;;;;;;;;;5023648;28;20025;-61
2022/02/04 21:23:20;;;;;;;0.52;0.10;;;;;;;;;;5017384;28;20033;-61
2022/02/04 21:25:46;;;;;;;0.10;0.05;;;;;;;;;;5038303;28;20070;-61
2022/02/04 21:28:11;;;;;;;0.65;0.10;;;;;;;;;;5028416;28;20057;-60
2022/02/04 21:30:38;;;;;;;0.30;0.05;;;;;;;;;;5037449;28;20044;-59
2022/02/04 21:33:08;;;;;;;0.17;0.00;;;;;;;;;;5037677;28;20057;-60
2022/02/04 21:38:17;;;;;;;0.10;0.00;;;;;;;;;;5042028;28;20067;-58
2022/02/04 21:40:42;;;;;;;0.10;0.10;;;;;;;;;;5031245;28;20123;-60
2022/02/04 21:43:07;;;;;;;0.13;0.00;;;;;;;;;;5040487;28;20509;-59
2022/02/04 21:45:36;;;;;;;0.17;0.03;;;;;;;;;;5032160;28;20202;-59
2022/02/04 21:48:02;;;;;;;0.10;0.10;;;;;;;;;;5020000;28;20059;-60
2022/02/04 21:50:29;;;;;;;0.52;0.10;;;;;;;;;;5038709;28;20040;-60
2022/02/04 21:52:54;;;;;;;0.30;0.00;;;;;;;;;;5021362;28;20300;-60
2022/02/04 21:55:19;;;;;;;0.15;0.10;;;;;;;;;;5038186;28;20061;-58
2022/02/04 21:57:44;;;;;;;0.10;0.10;;;;;;;;;;5030917;28;20503;-57
2022/02/04 22:00:11;;;;;;;0.30;0.10;;;;;;;;;;5039478;28;20021;-59